METAR Data
IDs: Format: Raw Decoded Include TAF

Data at: 2124 UTC 18 Sep 2018

KLWV 182053Z AUTO 28004KT 10SM CLR 34/17 A2990 RMK AO2 SLP121 T03390172 56016
KLWV 181953Z AUTO VRB03KT 10SM SCT100 35/17 A2991 RMK AO2 SLP124 T03500172
KLWV 181853Z AUTO 10SM CLR 34/18 A2993 RMK AO2 SLP131 T03390178
KLWV 181753Z AUTO VRB03KT 10SM CLR 33/18 A2995 RMK AO2 SLP137 T03330178 10333 20200 58009
KLWV 181653Z AUTO VRB04KT 10SM SCT110 32/18 A2996 RMK AO2 SLP141 T03170183
KLWV 181553Z AUTO 27005KT 10SM SCT095 31/19 A2997 RMK AO2 SLP145 T03060189
KLWV 181453Z AUTO 28004KT 10SM SCT080 BKN100 29/19 A2998 RMK AO2 SLP147 T02890194 51004
KLWV 181353Z AUTO 29003KT 10SM FEW100 26/20 A2998 RMK AO2 SLP147 T02560200
KLWV 181253Z AUTO 00000KT 10SM CLR 23/20 A2998 RMK AO2 SLP147 T02280200
KLWV 181153Z AUTO 21003KT 6SM BR BKN100 20/19 A2996 RMK AO2 SLP143 7//// T02000189 10228 20194 51007
KLWV 181053Z AUTO 27003KT 10SM CLR 20/19 A2996 RMK AO2 SLP140 T02000189
KLWV 180953Z AUTO 00000KT 10SM CLR 21/19 A2995 RMK AO2 SLP138 T02060189
KLWV 180853Z AUTO 22003KT 10SM CLR 21/19 A2994 RMK AO2 SLP134 T02110189 55002
KLWV 180753Z AUTO 21003KT 10SM CLR 22/19 A2994 RMK AO2 SLP134 T02170194
KLWV 180653Z AUTO 00000KT 10SM BKN100 23/20 A2994 RMK AO2 SLP134 T02280200
KLWV 180553Z AUTO 17005KT 10SM FEW075 BKN100 BKN110 22/20 A2995 RMK AO2 SLP137 T02220200 10289 20222 403330206 50004
KLWV 180453Z AUTO 18003KT 10SM CLR 22/20 A2995 RMK AO2 SLPNO T02220200
KLWV 180353Z AUTO 23003KT 10SM CLR 23/20 A2994 RMK AO2 SLP136 T02280200 TSNO
KLWV 180253Z AUTO 25003KT 10SM CLR 24/21 A2994 RMK AO2 SLP133 T02390206 51010 TSNO
KLWV 180153Z AUTO 19003KT 7SM CLR 24/21 A2993 RMK AO2 SLP132 T02390206
KLWV 180053Z AUTO 00000KT 10SM CLR 26/21 A2992 RMK AO2 SLP127 T02560206
KLWV 172353Z AUTO 25003KT 10SM CLR 29/20 A2991 RMK AO2 SLP122 T02890200 10333 20289 53004
KLWV 172253Z AUTO 28004KT 10SM CLR 32/18 A2990 RMK AO2 SLP119 T03170183
KLWV 172153Z AUTO 30003KT 10SM FEW060 33/18 A2989 RMK AO2 SLP117 T03280183
KLWV 172053Z AUTO 30004KT 10SM CLR 33/18 A2989 RMK AO2 SLP117 T03330183 56017
KLWV 171953Z AUTO 34007KT 10SM CLR 32/18 A2990 RMK AO2 SLP120 T03220183
KLWV 171853Z AUTO VRB04KT 10SM FEW049 32/19 A2992 RMK AO2 SLP128 T03220189
KLWV 171753Z AUTO 32004KT SCT044 29/19 A2994 RMK AO2 SLP135 6//// T02940189 58009
KLWV 171653Z AUTO FEW041 A2995 RMK AO2 SLPNO PWINO PNO $
KLWV 171553Z AUTO 33007KT 10SM CLR 29/19 A2997 RMK AO2 SLP143 T02940194
KLWV 171453Z AUTO 34004KT 10SM CLR 28/20 A2997 RMK AO2 SLP144 T02830200 51005
KLWV 171353Z AUTO 33004KT 10SM CLR 26/21 A2996 RMK AO2 SLP142 T02560206
KLWV 171253Z AUTO 00000KT 10SM CLR 23/21 A2996 RMK AO2 SLP142 T02330206
KLWV 171153Z AUTO 00000KT 10SM CLR 21/19 A2995 RMK AO2 SLP139 T02110194 10217 20206 53006
KLWV 171053Z AUTO 00000KT 10SM CLR 21/19 A2994 RMK AO2 SLP135 T02110194
KLWV 170953Z AUTO 00000KT 10SM CLR 22/19 A2994 RMK AO2 SLP133 T02170194